sensor_id;sensor_type;location;lat;lon;timestamp;pressure;altitude;pressure_sealevel;temperature;humidity
56270;BME280;42176;43.240;27.880;2023-12-20T00:01:31;100509.84;;;4.21;100.00
56270;BME280;42176;43.240;27.880;2023-12-20T00:03:31;100501.09;;;4.16;100.00
56270;BME280;42176;43.240;27.880;2023-12-20T00:05:32;100504.66;;;4.24;100.00
56270;BME280;42176;43.240;27.880;2023-12-20T00:07:32;100501.63;;;4.78;100.00
56270;BME280;42176;43.240;27.880;2023-12-20T00:09:33;100490.31;;;4.86;100.00
56270;BME280;42176;43.240;27.880;2023-12-20T00:11:33;100500.22;;;4.17;100.00
56270;BME280;42176;43.240;27.880;2023-12-20T00:13:34;100509.75;;;4.08;100.00
56270;BME280;42176;43.240;27.880;2023-12-20T00:15:35;100502.81;;;4.14;100.00
56270;BME280;42176;43.240;27.880;2023-12-20T00:17:35;100504.75;;;4.36;100.00
56270;BME280;42176;43.240;27.880;2023-12-20T00:19:36;100486.81;;;4.89;100.00
56270;BME280;42176;43.240;27.880;2023-12-20T00:21:36;100488.59;;;3.93;100.00
56270;BME280;42176;43.240;27.880;2023-12-20T00:23:37;100481.44;;;3.79;100.00
56270;BME280;42176;43.240;27.880;2023-12-20T00:25:37;100479.81;;;3.88;100.00
56270;BME280;42176;43.240;27.880;2023-12-20T00:27:38;100465.09;;;4.04;100.00
56270;BME280;42176;43.240;27.880;2023-12-20T00:29:38;100490.78;;;4.37;100.00
56270;BME280;42176;43.240;27.880;2023-12-20T00:31:39;100471.72;;;3.69;100.00
56270;BME280;42176;43.240;27.880;2023-12-20T00:33:39;100482.00;;;3.50;100.00
56270;BME280;42176;43.240;27.880;2023-12-20T00:35:43;100482.03;;;3.55;100.00
56270;BME280;42176;43.240;27.880;2023-12-20T00:37:44;100474.22;;;3.60;100.00
56270;BME280;42176;43.240;27.880;2023-12-20T00:39:44;100470.50;;;4.19;100.00
56270;BME280;42176;43.240;27.880;2023-12-20T00:41:45;100469.03;;;3.63;100.00
56270;BME280;42176;43.240;27.880;2023-12-20T00:43:45;100464.00;;;3.12;100.00
56270;BME280;42176;43.240;27.880;2023-12-20T00:45:46;100466.41;;;2.94;100.00
56270;BME280;42176;43.240;27.880;2023-12-20T00:47:47;100463.97;;;3.08;100.00
56270;BME280;42176;43.240;27.880;2023-12-20T00:49:47;100466.78;;;3.22;100.00
56270;BME280;42176;43.240;27.880;2023-12-20T00:51:48;100454.81;;;4.27;100.00
56270;BME280;42176;43.240;27.880;2023-12-20T00:53:50;100457.00;;;3.80;100.00
56270;BME280;42176;43.240;27.880;2023-12-20T00:55:54;100457.75;;;3.70;100.00
56270;BME280;42176;43.240;27.880;2023-12-20T00:57:55;100456.06;;;3.75;100.00
56270;BME280;42176;43.240;27.880;2023-12-20T00:59:56;100452.16;;;4.24;100.00
56270;BME280;42176;43.240;27.880;2023-12-20T01:01:56;100447.28;;;4.70;100.00
56270;BME280;42176;43.240;27.880;2023-12-20T01:03:57;100445.69;;;3.86;100.00
56270;BME280;42176;43.240;27.880;2023-12-20T01:05:57;100441.09;;;3.66;100.00
56270;BME280;42176;43.240;27.880;2023-12-20T01:07:58;100442.94;;;3.75;100.00
56270;BME280;42176;43.240;27.880;2023-12-20T01:09:58;100441.91;;;4.55;100.00
56270;BME280;42176;43.240;27.880;2023-12-20T01:11:59;100422.19;;;3.97;100.00
56270;BME280;42176;43.240;27.880;2023-12-20T01:13:59;100437.66;;;3.69;100.00
56270;BME280;42176;43.240;27.880;2023-12-20T01:16:00;100436.91;;;3.83;100.00
56270;BME280;42176;43.240;27.880;2023-12-20T01:18:01;100435.22;;;3.89;100.00
56270;BME280;42176;43.240;27.880;2023-12-20T01:20:02;100429.13;;;3.92;100.00
56270;BME280;42176;43.240;27.880;2023-12-20T01:22:03;100429.13;;;3.92;100.00
56270;BME280;42176;43.240;27.880;2023-12-20T01:24:03;100431.19;;;4.25;100.00
56270;BME280;42176;43.240;27.880;2023-12-20T01:26:04;100429.53;;;4.35;100.00
56270;BME280;42176;43.240;27.880;2023-12-20T01:28:05;100428.88;;;3.67;100.00
56270;BME280;42176;43.240;27.880;2023-12-20T01:30:06;100425.09;;;3.43;100.00
56270;BME280;42176;43.240;27.880;2023-12-20T01:32:07;100430.47;;;3.53;100.00
56270;BME280;42176;43.240;27.880;2023-12-20T01:34:08;100429.09;;;3.86;100.00
56270;BME280;42176;43.240;27.880;2023-12-20T01:36:08;100413.63;;;4.17;100.00
56270;BME280;42176;43.240;27.880;2023-12-20T01:38:09;100418.00;;;3.33;100.00
56270;BME280;42176;43.240;27.880;2023-12-20T01:40:10;100409.38;;;2.72;100.00
56270;BME280;42176;43.240;27.880;2023-12-20T01:42:10;100408.81;;;2.97;100.00
56270;BME280;42176;43.240;27.880;2023-12-20T01:44:11;100409.66;;;3.68;100.00
56270;BME280;42176;43.240;27.880;2023-12-20T01:46:12;100400.97;;;3.75;100.00
56270;BME280;42176;43.240;27.880;2023-12-20T01:48:14;100391.09;;;2.77;100.00
56270;BME280;42176;43.240;27.880;2023-12-20T01:50:16;100392.25;;;2.38;100.00
56270;BME280;42176;43.240;27.880;2023-12-20T01:52:19;100374.94;;;2.46;100.00
56270;BME280;42176;43.240;27.880;2023-12-20T01:54:20;100374.34;;;2.66;100.00
56270;BME280;42176;43.240;27.880;2023-12-20T01:56:21;100383.25;;;2.77;100.00
56270;BME280;42176;43.240;27.880;2023-12-20T01:58:23;100374.66;;;3.63;100.00
56270;BME280;42176;43.240;27.880;2023-12-20T02:00:23;100371.56;;;3.19;100.00
56270;BME280;42176;43.240;27.880;2023-12-20T02:02:27;100354.72;;;2.36;100.00
56270;BME280;42176;43.240;27.880;2023-12-20T02:04:28;100362.31;;;2.17;100.00
56270;BME280;42176;43.240;27.880;2023-12-20T02:06:30;100365.97;;;2.28;100.00
56270;BME280;42176;43.240;27.880;2023-12-20T02:08:34;100354.81;;;2.42;100.00
56270;BME280;42176;43.240;27.880;2023-12-20T02:10:35;100357.94;;;2.76;100.00
56270;BME280;42176;43.240;27.880;2023-12-20T02:12:35;100333.34;;;3.39;100.00
56270;BME280;42176;43.240;27.880;2023-12-20T02:14:36;100353.59;;;2.78;100.00
56270;BME280;42176;43.240;27.880;2023-12-20T02:16:36;100348.63;;;2.37;100.00
56270;BME280;42176;43.240;27.880;2023-12-20T02:18:37;100343.50;;;2.43;100.00
56270;BME280;42176;43.240;27.880;2023-12-20T02:20:38;100341.91;;;2.54;100.00
56270;BME280;42176;43.240;27.880;2023-12-20T02:22:38;100335.13;;;3.43;100.00
56270;BME280;42176;43.240;27.880;2023-12-20T02:24:39;100325.63;;;3.53;100.00
56270;BME280;42176;43.240;27.880;2023-12-20T02:26:40;100329.41;;;3.01;100.00
56270;BME280;42176;43.240;27.880;2023-12-20T02:28:41;100326.63;;;2.85;100.00
56270;BME280;42176;43.240;27.880;2023-12-20T02:30:41;100322.38;;;2.94;100.00
56270;BME280;42176;43.240;27.880;2023-12-20T02:32:42;100314.66;;;3.06;100.00
56270;BME280;42176;43.240;27.880;2023-12-20T02:34:42;100291.84;;;2.99;100.00
56270;BME280;42176;43.240;27.880;2023-12-20T02:36:43;100309.53;;;3.17;100.00
56270;BME280;42176;43.240;27.880;2023-12-20T02:38:44;100308.22;;;3.61;100.00
56270;BME280;42176;43.240;27.880;2023-12-20T02:40:44;100302.81;;;2.65;100.00
56270;BME280;42176;43.240;27.880;2023-12-20T02:42:45;100302.16;;;2.17;100.00
56270;BME280;42176;43.240;27.880;2023-12-20T02:44:45;100303.19;;;2.28;100.00
56270;BME280;42176;43.240;27.880;2023-12-20T02:46:46;100296.44;;;2.46;100.00
56270;BME280;42176;43.240;27.880;2023-12-20T02:48:46;100302.41;;;3.05;100.00
56270;BME280;42176;43.240;27.880;2023-12-20T02:50:47;100288.09;;;3.60;100.00
56270;BME280;42176;43.240;27.880;2023-12-20T02:52:49;100293.66;;;3.03;100.00
56270;BME280;42176;43.240;27.880;2023-12-20T02:54:49;100291.91;;;3.02;100.00
56270;BME280;42176;43.240;27.880;2023-12-20T02:56:50;100295.53;;;3.16;100.00
56270;BME280;42176;43.240;27.880;2023-12-20T02:58:50;100292.19;;;3.30;100.00
56270;BME280;42176;43.240;27.880;2023-12-20T03:00:51;100289.72;;;3.42;100.00
56270;BME280;42176;43.240;27.880;2023-12-20T03:02:51;100299.38;;;3.48;100.00
56270;BME280;42176;43.240;27.880;2023-12-20T03:04:52;100288.88;;;3.49;100.00
56270;BME280;42176;43.240;27.880;2023-12-20T03:06:53;100293.31;;;3.55;100.00
56270;BME280;42176;43.240;27.880;2023-12-20T03:08:53;100288.84;;;3.46;100.00
56270;BME280;42176;43.240;27.880;2023-12-20T03:10:54;100297.59;;;3.45;100.00
56270;BME280;42176;43.240;27.880;2023-12-20T03:12:54;100294.97;;;3.42;100.00
56270;BME280;42176;43.240;27.880;2023-12-20T03:14:55;100288.84;;;3.46;100.00
56270;BME280;42176;43.240;27.880;2023-12-20T03:16:55;100293.72;;;4.03;100.00
56270;BME280;42176;43.240;27.880;2023-12-20T03:18:56;100292.19;;;3.27;100.00
56270;BME280;42176;43.240;27.880;2023-12-20T03:20:57;100292.97;;;2.47;100.00
56270;BME280;42176;43.240;27.880;2023-12-20T03:22:57;100291.88;;;2.31;100.00
56270;BME280;42176;43.240;27.880;2023-12-20T03:24:58;100290.31;;;2.44;100.00
56270;BME280;42176;43.240;27.880;2023-12-20T03:26:58;100296.28;;;3.03;100.00
56270;BME280;42176;43.240;27.880;2023-12-20T03:28:59;100287.03;;;3.36;100.00
56270;BME280;42176;43.240;27.880;2023-12-20T03:31:00;100289.34;;;2.39;100.00
56270;BME280;42176;43.240;27.880;2023-12-20T03:33:00;100300.41;;;2.18;100.00
56270;BME280;42176;43.240;27.880;2023-12-20T03:35:01;100290.97;;;2.27;100.00
56270;BME280;42176;43.240;27.880;2023-12-20T03:37:01;100292.84;;;2.38;100.00
56270;BME280;42176;43.240;27.880;2023-12-20T03:39:02;100283.50;;;3.34;100.00
56270;BME280;42176;43.240;27.880;2023-12-20T03:41:04;100285.03;;;3.10;100.00
56270;BME280;42176;43.240;27.880;2023-12-20T03:43:05;100282.41;;;2.41;100.00
56270;BME280;42176;43.240;27.880;2023-12-20T03:45:06;100277.91;;;1.71;100.00
56270;BME280;42176;43.240;27.880;2023-12-20T03:47:06;100280.00;;;1.93;100.00
56270;BME280;42176;43.240;27.880;2023-12-20T03:49:07;100281.97;;;2.10;100.00
56270;BME280;42176;43.240;27.880;2023-12-20T03:51:07;100280.34;;;2.84;100.00
56270;BME280;42176;43.240;27.880;2023-12-20T03:53:08;100281.25;;;2.86;100.00
56270;BME280;42176;43.240;27.880;2023-12-20T03:55:09;100282.03;;;2.13;100.00
56270;BME280;42176;43.240;27.880;2023-12-20T03:57:09;100270.91;;;1.70;100.00
56270;BME280;42176;43.240;27.880;2023-12-20T03:59:10;100279.19;;;1.97;100.00
56270;BME280;42176;43.240;27.880;2023-12-20T04:01:11;100273.44;;;2.23;100.00
56270;BME280;42176;43.240;27.880;2023-12-20T04:03:14;100279.38;;;2.76;100.00
56270;BME280;42176;43.240;27.880;2023-12-20T04:05:14;100268.00;;;3.56;100.00
56270;BME280;42176;43.240;27.880;2023-12-20T04:07:15;100264.47;;;2.70;100.00
56270;BME280;42176;43.240;27.880;2023-12-20T04:09:15;100259.00;;;1.90;100.00
56270;BME280;42176;43.240;27.880;2023-12-20T04:11:16;100260.88;;;1.97;100.00
56270;BME280;42176;43.240;27.880;2023-12-20T04:13:17;100263.84;;;2.22;100.00
56270;BME280;42176;43.240;27.880;2023-12-20T04:15:17;100258.63;;;2.92;100.00
56270;BME280;42176;43.240;27.880;2023-12-20T04:17:18;100246.72;;;3.22;100.00
56270;BME280;42176;43.240;27.880;2023-12-20T04:19:19;100245.22;;;2.67;100.00
56270;BME280;42176;43.240;27.880;2023-12-20T04:21:19;100248.03;;;2.82;100.00
56270;BME280;42176;43.240;27.880;2023-12-20T04:23:20;100248.97;;;2.89;100.00
56270;BME280;42176;43.240;27.880;2023-12-20T04:25:20;100241.44;;;3.18;100.00
56270;BME280;42176;43.240;27.880;2023-12-20T04:27:21;100245.59;;;3.98;100.00
56270;BME280;42176;43.240;27.880;2023-12-20T04:29:22;100241.34;;;3.12;100.00
56270;BME280;42176;43.240;27.880;2023-12-20T04:31:22;100247.50;;;3.13;100.00
56270;BME280;42176;43.240;27.880;2023-12-20T04:33:23;100243.22;;;3.23;100.00
56270;BME280;42176;43.240;27.880;2023-12-20T04:35:23;100240.59;;;3.24;100.00
56270;BME280;42176;43.240;27.880;2023-12-20T04:37:24;100238.56;;;3.97;100.00
56270;BME280;42176;43.240;27.880;2023-12-20T04:39:26;100224.63;;;2.95;100.00
56270;BME280;42176;43.240;27.880;2023-12-20T04:41:26;100235.78;;;2.81;100.00
56270;BME280;42176;43.240;27.880;2023-12-20T04:43:28;100235.59;;;2.63;100.00
56270;BME280;42176;43.240;27.880;2023-12-20T04:45:29;100240.66;;;2.50;100.00
56270;BME280;42176;43.240;27.880;2023-12-20T04:47:30;100219.72;;;2.50;100.00
56270;BME280;42176;43.240;27.880;2023-12-20T04:49:31;100238.31;;;2.70;100.00
56270;BME280;42176;43.240;27.880;2023-12-20T04:51:34;100236.56;;;3.62;100.00
56270;BME280;42176;43.240;27.880;2023-12-20T04:53:35;100222.56;;;3.57;100.00
56270;BME280;42176;43.240;27.880;2023-12-20T04:55:36;100227.28;;;3.01;100.00
56270;BME280;42176;43.240;27.880;2023-12-20T04:57:36;100226.13;;;2.72;100.00
56270;BME280;42176;43.240;27.880;2023-12-20T04:59:37;100229.00;;;2.99;100.00
56270;BME280;42176;43.240;27.880;2023-12-20T05:01:37;100235.84;;;3.81;100.00
56270;BME280;42176;43.240;27.880;2023-12-20T05:03:38;100230.91;;;3.15;100.00
56270;BME280;42176;43.240;27.880;2023-12-20T05:05:39;100235.47;;;2.53;100.00
56270;BME280;42176;43.240;27.880;2023-12-20T05:07:39;100225.19;;;2.01;100.00
56270;BME280;42176;43.240;27.880;2023-12-20T05:09:40;100228.13;;;2.26;100.00
56270;BME280;42176;43.240;27.880;2023-12-20T05:11:41;100214.34;;;2.36;100.00
56270;BME280;42176;43.240;27.880;2023-12-20T05:14:00;100229.56;;;2.68;100.00
56270;BME280;42176;43.240;27.880;2023-12-20T05:16:01;100220.97;;;2.83;100.00
56270;BME280;42176;43.240;27.880;2023-12-20T05:18:02;100229.13;;;3.08;100.00
56270;BME280;42176;43.240;27.880;2023-12-20T05:20:03;100218.00;;;3.35;100.00
56270;BME280;42176;43.240;27.880;2023-12-20T05:22:03;100215.56;;;3.56;100.00
56270;BME280;42176;43.240;27.880;2023-12-20T05:24:04;100217.63;;;4.05;100.00
56270;BME280;42176;43.240;27.880;2023-12-20T05:26:05;100212.31;;;3.88;100.00
56270;BME280;42176;43.240;27.880;2023-12-20T05:28:06;100216.06;;;3.13;100.00
56270;BME280;42176;43.240;27.880;2023-12-20T05:30:07;100213.38;;;2.30;100.00
56270;BME280;42176;43.240;27.880;2023-12-20T05:32:08;100211.06;;;2.54;100.00
56270;BME280;42176;43.240;27.880;2023-12-20T05:34:08;100213.13;;;2.83;100.00
56270;BME280;42176;43.240;27.880;2023-12-20T05:36:09;100212.25;;;3.81;100.00
56270;BME280;42176;43.240;27.880;2023-12-20T05:38:11;100212.66;;;3.23;100.00
56270;BME280;42176;43.240;27.880;2023-12-20T05:40:12;100216.19;;;3.28;100.00
56270;BME280;42176;43.240;27.880;2023-12-20T05:42:12;100215.56;;;3.56;100.00
56270;BME280;42176;43.240;27.880;2023-12-20T05:44:13;100212.16;;;3.69;100.00
56270;BME280;42176;43.240;27.880;2023-12-20T05:46:14;100208.72;;;3.73;100.00
56270;BME280;42176;43.240;27.880;2023-12-20T05:48:14;100208.94;;;4.14;100.00
56270;BME280;42176;43.240;27.880;2023-12-20T05:50:15;100200.25;;;4.24;100.00
56270;BME280;42176;43.240;27.880;2023-12-20T05:52:15;100204.16;;;3.50;100.00
56270;BME280;42176;43.240;27.880;2023-12-20T05:54:16;100213.91;;;3.67;100.00
56270;BME280;42176;43.240;27.880;2023-12-20T05:56:16;100209.16;;;4.59;100.00
56270;BME280;42176;43.240;27.880;2023-12-20T05:58:17;100197.91;;;5.63;100.00
56270;BME280;42176;43.240;27.880;2023-12-20T06:00:18;100212.78;;;5.30;100.00
56270;BME280;42176;43.240;27.880;2023-12-20T06:02:18;100205.78;;;5.05;100.00
56270;BME280;42176;43.240;27.880;2023-12-20T06:04:19;100198.78;;;6.00;100.00
56270;BME280;42176;43.240;27.880;2023-12-20T06:06:20;100203.63;;;6.99;100.00
56270;BME280;42176;43.240;27.880;2023-12-20T06:08:20;100202.88;;;6.78;100.00
56270;BME280;42176;43.240;27.880;2023-12-20T06:10:21;100206.66;;;5.98;100.00
56270;BME280;42176;43.240;27.880;2023-12-20T06:12:22;100213.69;;;5.77;100.00
56270;BME280;42176;43.240;27.880;2023-12-20T06:14:22;100204.88;;;6.11;100.00
56270;BME280;42176;43.240;27.880;2023-12-20T06:16:23;100207.53;;;6.05;100.00
56270;BME280;42176;43.240;27.880;2023-12-20T06:18:23;100200.53;;;6.04;100.00
56270;BME280;42176;43.240;27.880;2023-12-20T06:20:24;100204.84;;;6.25;100.00
56270;BME280;42176;43.240;27.880;2023-12-20T06:22:25;100204.91;;;5.23;100.00
56270;BME280;42176;43.240;27.880;2023-12-20T06:24:25;100219.63;;;4.54;100.00
56270;BME280;42176;43.240;27.880;2023-12-20T06:26:28;100198.75;;;4.97;100.00
56270;BME280;42176;43.240;27.880;2023-12-20T06:28:28;100213.53;;;6.47;100.00
56270;BME280;42176;43.240;27.880;2023-12-20T06:30:29;100208.25;;;7.80;100.00
56270;BME280;42176;43.240;27.880;2023-12-20T06:32:30;100201.81;;;8.85;98.16
56270;BME280;42176;43.240;27.880;2023-12-20T06:34:30;100201.84;;;9.95;86.48
56270;BME280;42176;43.240;27.880;2023-12-20T06:36:31;100198.66;;;9.74;74.13
56270;BME280;42176;43.240;27.880;2023-12-20T06:38:31;100184.53;;;8.61;82.75
56270;BME280;42176;43.240;27.880;2023-12-20T06:40:32;100205.91;;;8.37;94.48
56270;BME280;42176;43.240;27.880;2023-12-20T06:42:32;100205.59;;;9.81;90.69
56270;BME280;42176;43.240;27.880;2023-12-20T06:44:33;100201.59;;;10.95;79.72
56270;BME280;42176;43.240;27.880;2023-12-20T06:46:34;100194.63;;;12.01;68.81
56270;BME280;42176;43.240;27.880;2023-12-20T06:48:35;100186.47;;;12.99;60.61
56270;BME280;42176;43.240;27.880;2023-12-20T06:50:36;100180.91;;;13.89;55.45
56270;BME280;42176;43.240;27.880;2023-12-20T06:52:40;100183.44;;;14.90;51.32
56270;BME280;42176;43.240;27.880;2023-12-20T06:54:40;100175.38;;;15.79;48.12
56270;BME280;42176;43.240;27.880;2023-12-20T06:56:41;100163.44;;;16.48;45.61
56270;BME280;42176;43.240;27.880;2023-12-20T06:58:42;100177.75;;;17.24;43.48
56270;BME280;42176;43.240;27.880;2023-12-20T07:00:42;100162.03;;;17.88;41.49
56270;BME280;42176;43.240;27.880;2023-12-20T07:02:43;100166.13;;;18.46;40.09
56270;BME280;42176;43.240;27.880;2023-12-20T07:04:44;100158.16;;;18.94;38.70
56270;BME280;42176;43.240;27.880;2023-12-20T07:06:45;100155.97;;;19.33;36.65
56270;BME280;42176;43.240;27.880;2023-12-20T07:08:45;100162.03;;;19.98;36.59
56270;BME280;42176;43.240;27.880;2023-12-20T07:10:46;100160.13;;;20.58;35.25
56270;BME280;42176;43.240;27.880;2023-12-20T07:12:46;100155.66;;;21.00;33.80
56270;BME280;42176;43.240;27.880;2023-12-20T07:14:49;100154.22;;;21.49;32.09
56270;BME280;42176;43.240;27.880;2023-12-20T07:16:49;100155.84;;;21.92;31.36
56270;BME280;42176;43.240;27.880;2023-12-20T07:18:51;100158.25;;;18.09;36.21
56270;BME280;42176;43.240;27.880;2023-12-20T07:20:52;100171.22;;;14.11;44.32
56270;BME280;42176;43.240;27.880;2023-12-20T07:22:54;100175.09;;;12.33;52.92
56270;BME280;42176;43.240;27.880;2023-12-20T07:24:55;100160.13;;;14.24;47.11
56270;BME280;42176;43.240;27.880;2023-12-20T07:26:55;100165.09;;;15.70;44.11
56270;BME280;42176;43.240;27.880;2023-12-20T07:28:56;100155.25;;;16.89;42.36
56270;BME280;42176;43.240;27.880;2023-12-20T07:30:58;100153.34;;;17.83;39.80
56270;BME280;42176;43.240;27.880;2023-12-20T07:32:59;100155.94;;;18.85;37.71
56270;BME280;42176;43.240;27.880;2023-12-20T07:35:01;100155.59;;;19.70;36.14
56270;BME280;42176;43.240;27.880;2023-12-20T07:37:03;100144.94;;;20.28;35.70
56270;BME280;42176;43.240;27.880;2023-12-20T07:39:04;100135.06;;;20.14;33.20
56270;BME280;42176;43.240;27.880;2023-12-20T07:41:05;100140.31;;;20.44;33.00
56270;BME280;42176;43.240;27.880;2023-12-20T07:43:05;100133.69;;;21.06;32.17
56270;BME280;42176;43.240;27.880;2023-12-20T07:45:06;100129.59;;;21.81;31.55
56270;BME280;42176;43.240;27.880;2023-12-20T07:47:07;100144.50;;;22.39;30.54
56270;BME280;42176;43.240;27.880;2023-12-20T07:49:07;100127.97;;;22.93;29.80
56270;BME280;42176;43.240;27.880;2023-12-20T07:51:08;100124.44;;;22.80;28.72
56270;BME280;42176;43.240;27.880;2023-12-20T07:53:10;100130.28;;;22.74;28.00
56270;BME280;42176;43.240;27.880;2023-12-20T07:55:10;100127.13;;;21.91;29.38
56270;BME280;42176;43.240;27.880;2023-12-20T07:57:11;100130.59;;;22.45;29.36
56270;BME280;42176;43.240;27.880;2023-12-20T07:59:12;100129.06;;;22.28;29.57
56270;BME280;42176;43.240;27.880;2023-12-20T08:01:13;100126.47;;;21.74;29.40
56270;BME280;42176;43.240;27.880;2023-12-20T08:03:15;100119.88;;;21.38;29.75
56270;BME280;42176;43.240;27.880;2023-12-20T08:05:16;100127.22;;;21.36;30.96
56270;BME280;42176;43.240;27.880;2023-12-20T08:07:17;100117.50;;;20.93;30.99
56270;BME280;42176;43.240;27.880;2023-12-20T08:09:17;100112.88;;;21.63;30.18
56270;BME280;42176;43.240;27.880;2023-12-20T08:11:18;100110.00;;;21.52;30.37
56270;BME280;42176;43.240;27.880;2023-12-20T08:13:19;100111.09;;;20.52;31.07
56270;BME280;42176;43.240;27.880;2023-12-20T08:15:19;100106.28;;;19.55;32.64
56270;BME280;42176;43.240;27.880;2023-12-20T08:17:20;100106.56;;;19.50;32.81
56270;BME280;42176;43.240;27.880;2023-12-20T08:19:20;100089.19;;;20.01;32.35
56270;BME280;42176;43.240;27.880;2023-12-20T08:21:21;100095.84;;;18.87;33.11
56270;BME280;42176;43.240;27.880;2023-12-20T08:23:22;100094.72;;;19.08;33.80
56270;BME280;42176;43.240;27.880;2023-12-20T08:25:23;100090.91;;;18.80;34.58
56270;BME280;42176;43.240;27.880;2023-12-20T08:27:24;100096.44;;;18.77;34.67
56270;BME280;42176;43.240;27.880;2023-12-20T08:29:26;100089.91;;;18.17;35.26
56270;BME280;42176;43.240;27.880;2023-12-20T08:31:26;100078.16;;;17.50;36.61
56270;BME280;42176;43.240;27.880;2023-12-20T08:33:27;100081.47;;;16.84;37.76
56270;BME280;42176;43.240;27.880;2023-12-20T08:35:27;100086.53;;;15.53;39.87
56270;BME280;42176;43.240;27.880;2023-12-20T08:37:29;100060.47;;;14.50;42.05
56270;BME280;42176;43.240;27.880;2023-12-20T08:39:30;100074.53;;;14.08;43.73
56270;BME280;42176;43.240;27.880;2023-12-20T08:41:30;100073.03;;;13.75;44.80
56270;BME280;42176;43.240;27.880;2023-12-20T08:43:31;100072.81;;;13.56;45.72
56270;BME280;42176;43.240;27.880;2023-12-20T08:45:32;100050.72;;;13.27;46.59
56270;BME280;42176;43.240;27.880;2023-12-20T08:47:32;100042.91;;;13.22;47.80
56270;BME280;42176;43.240;27.880;2023-12-20T08:49:33;100049.44;;;13.12;48.11
56270;BME280;42176;43.240;27.880;2023-12-20T08:51:34;100053.13;;;11.61;52.09
56270;BME280;42176;43.240;27.880;2023-12-20T08:53:34;100046.47;;;10.36;59.83
56270;BME280;42176;43.240;27.880;2023-12-20T08:55:35;100050.44;;;9.74;64.92
56270;BME280;42176;43.240;27.880;2023-12-20T08:57:36;100049.69;;;10.11;64.65
56270;BME280;42176;43.240;27.880;2023-12-20T08:59:37;100026.03;;;10.43;64.71
56270;BME280;42176;43.240;27.880;2023-12-20T09:01:38;100037.78;;;10.69;64.70
56270;BME280;42176;43.240;27.880;2023-12-20T09:03:39;100026.34;;;11.04;61.53
56270;BME280;42176;43.240;27.880;2023-12-20T09:05:40;100026.16;;;10.38;63.90
56270;BME280;42176;43.240;27.880;2023-12-20T09:07:40;100022.16;;;9.76;67.95
56270;BME280;42176;43.240;27.880;2023-12-20T09:09:41;100018.22;;;9.96;68.93
56270;BME280;42176;43.240;27.880;2023-12-20T09:11:42;99996.63;;;10.14;68.49
56270;BME280;42176;43.240;27.880;2023-12-20T09:13:42;100011.00;;;10.43;68.15
56270;BME280;42176;43.240;27.880;2023-12-20T09:15:44;100000.72;;;10.67;66.25
56270;BME280;42176;43.240;27.880;2023-12-20T09:17:44;99995.13;;;10.79;65.89
56270;BME280;42176;43.240;27.880;2023-12-20T09:19:45;99994.41;;;11.07;64.87
56270;BME280;42176;43.240;27.880;2023-12-20T09:21:46;99990.28;;;11.30;61.47
56270;BME280;42176;43.240;27.880;2023-12-20T09:23:46;99991.25;;;11.27;59.91
56270;BME280;42176;43.240;27.880;2023-12-20T09:25:47;99984.41;;;10.48;64.04
56270;BME280;42176;43.240;27.880;2023-12-20T09:27:47;99976.66;;;10.40;68.35
56270;BME280;42176;43.240;27.880;2023-12-20T09:29:48;99978.03;;;10.57;66.90
56270;BME280;42176;43.240;27.880;2023-12-20T09:31:48;99966.84;;;10.78;65.62
56270;BME280;42176;43.240;27.880;2023-12-20T09:33:50;99969.00;;;10.99;62.97
56270;BME280;42176;43.240;27.880;2023-12-20T09:35:50;99959.38;;;10.60;65.86
56270;BME280;42176;43.240;27.880;2023-12-20T09:37:51;99954.38;;;10.84;69.76
56270;BME280;42176;43.240;27.880;2023-12-20T09:39:51;99954.59;;;11.09;65.55
56270;BME280;42176;43.240;27.880;2023-12-20T09:42:03;99942.22;;;11.39;60.75
56270;BME280;42176;43.240;27.880;2023-12-20T09:44:04;99938.19;;;10.93;62.98
56270;BME280;42176;43.240;27.880;2023-12-20T09:46:05;99938.13;;;10.96;62.86
56270;BME280;42176;43.240;27.880;2023-12-20T09:48:09;99924.41;;;11.13;61.51
56270;BME280;42176;43.240;27.880;2023-12-20T09:50:12;99903.56;;;11.31;60.13
56270;BME280;42176;43.240;27.880;2023-12-20T09:52:14;99900.69;;;11.38;58.77
56270;BME280;42176;43.240;27.880;2023-12-20T09:54:20;99916.66;;;10.72;60.84
56270;BME280;42176;43.240;27.880;2023-12-20T09:56:21;99922.53;;;10.84;62.51
56270;BME280;42176;43.240;27.880;2023-12-20T09:58:22;99916.81;;;10.99;62.71
56270;BME280;42176;43.240;27.880;2023-12-20T10:00:22;99903.13;;;11.15;63.18
56270;BME280;42176;43.240;27.880;2023-12-20T10:02:25;99899.56;;;11.47;59.03
56270;BME280;42176;43.240;27.880;2023-12-20T10:04:31;99903.16;;;10.81;61.61
56270;BME280;42176;43.240;27.880;2023-12-20T10:06:32;99886.19;;;10.89;62.71
56270;BME280;42176;43.240;27.880;2023-12-20T10:08:33;99897.06;;;11.11;60.25
56270;BME280;42176;43.240;27.880;2023-12-20T10:10:33;99892.84;;;11.35;59.34
56270;BME280;42176;43.240;27.880;2023-12-20T10:12:34;99890.19;;;11.65;59.50
56270;BME280;42176;43.240;27.880;2023-12-20T10:14:34;99890.53;;;11.53;60.01
56270;BME280;42176;43.240;27.880;2023-12-20T10:16:35;99896.78;;;11.20;62.41
56270;BME280;42176;43.240;27.880;2023-12-20T10:18:36;99887.41;;;11.38;60.69
56270;BME280;42176;43.240;27.880;2023-12-20T10:20:36;99887.94;;;11.51;59.21
56270;BME280;42176;43.240;27.880;2023-12-20T10:22:37;99882.25;;;11.64;58.66
56270;BME280;42176;43.240;27.880;2023-12-20T10:24:39;99885.31;;;11.80;57.29